Santantonio Primo — ILPU — position and weather

sailwx.info

Track history (hours):
 
Tides and Currents Weather Stations Pressure Air Temp Water Temp Dewpoint Dewpoint Depression Visibility Wind Speed Wind Dir Waves Ship Positions

Santantonio Primo

Last reported at 2018-Apr-25 16:47 UTC. Time now 2018-Jun-17 23:49 UTC.
Position S 04°47' E 011°50'.
Warning: this ship's position is 53 days out of date.

Length 34 m; draft 4.6 m.

Type: Tug. MMSI: 247027500.

Date/timePositionNaut miles runAvg speedWind from/ knotsBaromVisibWave heightAir tempDewpointWater temp
2018-Apr-25 16:47S 04°47' E 011°50'0 0.0
2018-Apr-25 15:56S 04°47' E 011°50'0 0.0
2018-Apr-25 15:29S 04°47' E 011°50'  
2018-Apr-22 20:09S 04°47' E 011°50'0 0.0
2018-Apr-22 20:00S 04°47' E 011°50'  
2018-Apr-20 02:43S 04°56' E 011°30'3 5.8
2018-Apr-20 02:09S 04°57' E 011°27'1 5.8
2018-Apr-20 01:58S 04°57' E 011°26'3 5.8
2018-Apr-20 01:30S 04°58' E 011°23'3 5.7
2018-Apr-20 00:59S 04°58' E 011°21'3 5.7
2018-Apr-20 00:29S 04°58' E 011°18'3 5.6
2018-Apr-19 23:59S 04°58' E 011°15'3 5.6
2018-Apr-19 23:27S 04°59' E 011°12'3 5.5
2018-Apr-19 22:51S 04°59' E 011°09'2 5.6
2018-Apr-19 22:30S 04°59' E 011°07'3 5.7
2018-Apr-19 21:58S 04°59' E 011°03'  
Track history (hours):
 
Tides and Currents Weather Stations Pressure Air Temp Water Temp Dewpoint Dewpoint Depression Visibility Wind Speed Wind Dir Waves Ship Positions

Santantonio Primo

Last reported at 2018-Apr-25 16:47 UTC. Time now 2018-Jun-17 23:49 UTC.
Position S 04°47' E 011°50'.
Warning: this ship's position is 53 days out of date.

Length 34 m; draft 4.6 m.

Type: Tug. MMSI: 247027500.

Date/timePositionNaut miles runAvg speedWind from/ knotsBaromVisibWave heightAir tempDewpointWater temp
2018-Apr-25 16:47S 04°47' E 011°50'0 0.0
2018-Apr-25 15:56S 04°47' E 011°50'0 0.0
2018-Apr-25 15:29S 04°47' E 011°50'  
2018-Apr-22 20:09S 04°47' E 011°50'0 0.0
2018-Apr-22 20:00S 04°47' E 011°50'  
2018-Apr-20 02:43S 04°56' E 011°30'3 5.8
2018-Apr-20 02:09S 04°57' E 011°27'1 5.8
2018-Apr-20 01:58S 04°57' E 011°26'3 5.8
2018-Apr-20 01:30S 04°58' E 011°23'3 5.7
2018-Apr-20 00:59S 04°58' E 011°21'3 5.7
2018-Apr-20 00:29S 04°58' E 011°18'3 5.6
2018-Apr-19 23:59S 04°58' E 011°15'3 5.6
2018-Apr-19 23:27S 04°59' E 011°12'3 5.5
2018-Apr-19 22:51S 04°59' E 011°09'2 5.6
2018-Apr-19 22:30S 04°59' E 011°07'3 5.7
2018-Apr-19 21:58S 04°59' E 011°03'  

Dump ship's entire track history